sensor_id;sensor_type;location;lat;lon;timestamp;P1;durP1;ratioP1;P2;durP2;ratioP2
56239;SDS011;42154;51.992;5.896;2024-01-07T00:00:06;37.58;;;24.02;;
56239;SDS011;42154;51.992;5.896;2024-01-07T00:02:32;39.33;;;23.40;;
56239;SDS011;42154;51.992;5.896;2024-01-07T00:04:58;39.60;;;22.45;;
56239;SDS011;42154;51.992;5.896;2024-01-07T00:07:24;38.78;;;24.58;;
56239;SDS011;42154;51.992;5.896;2024-01-07T00:09:50;40.20;;;22.85;;
56239;SDS011;42154;51.992;5.896;2024-01-07T00:12:15;33.00;;;20.85;;
56239;SDS011;42154;51.992;5.896;2024-01-07T00:14:42;34.42;;;22.08;;
56239;SDS011;42154;51.992;5.896;2024-01-07T00:17:07;35.95;;;21.85;;
56239;SDS011;42154;51.992;5.896;2024-01-07T00:19:35;44.42;;;25.45;;
56239;SDS011;42154;51.992;5.896;2024-01-07T00:22:02;40.55;;;23.98;;
56239;SDS011;42154;51.992;5.896;2024-01-07T00:24:28;41.67;;;24.20;;
56239;SDS011;42154;51.992;5.896;2024-01-07T00:26:54;45.40;;;26.38;;
56239;SDS011;42154;51.992;5.896;2024-01-07T00:29:20;43.03;;;23.73;;
56239;SDS011;42154;51.992;5.896;2024-01-07T00:31:46;47.92;;;27.10;;
56239;SDS011;42154;51.992;5.896;2024-01-07T00:34:12;51.17;;;29.30;;
56239;SDS011;42154;51.992;5.896;2024-01-07T00:36:38;43.88;;;25.42;;
56239;SDS011;42154;51.992;5.896;2024-01-07T00:39:04;48.10;;;27.35;;
56239;SDS011;42154;51.992;5.896;2024-01-07T00:41:31;50.25;;;27.40;;
56239;SDS011;42154;51.992;5.896;2024-01-07T00:43:57;55.88;;;30.92;;
56239;SDS011;42154;51.992;5.896;2024-01-07T00:46:23;52.83;;;27.83;;
56239;SDS011;42154;51.992;5.896;2024-01-07T00:48:49;54.70;;;28.85;;
56239;SDS011;42154;51.992;5.896;2024-01-07T00:51:15;53.65;;;28.45;;
56239;SDS011;42154;51.992;5.896;2024-01-07T00:53:40;51.33;;;28.65;;
56239;SDS011;42154;51.992;5.896;2024-01-07T00:56:06;54.45;;;29.27;;
56239;SDS011;42154;51.992;5.896;2024-01-07T00:58:32;50.67;;;27.60;;
56239;SDS011;42154;51.992;5.896;2024-01-07T01:00:58;50.63;;;26.67;;
56239;SDS011;42154;51.992;5.896;2024-01-07T01:03:25;47.78;;;26.30;;
56239;SDS011;42154;51.992;5.896;2024-01-07T01:05:51;45.90;;;25.35;;
56239;SDS011;42154;51.992;5.896;2024-01-07T01:08:17;45.10;;;25.52;;
56239;SDS011;42154;51.992;5.896;2024-01-07T01:10:43;43.10;;;24.77;;
56239;SDS011;42154;51.992;5.896;2024-01-07T01:13:09;39.92;;;23.17;;
56239;SDS011;42154;51.992;5.896;2024-01-07T01:15:35;41.55;;;23.65;;
56239;SDS011;42154;51.992;5.896;2024-01-07T01:18:01;37.67;;;22.25;;
56239;SDS011;42154;51.992;5.896;2024-01-07T01:20:27;42.00;;;24.02;;
56239;SDS011;42154;51.992;5.896;2024-01-07T01:22:53;39.85;;;23.60;;
56239;SDS011;42154;51.992;5.896;2024-01-07T01:25:19;43.00;;;25.17;;
56239;SDS011;42154;51.992;5.896;2024-01-07T01:27:46;39.78;;;24.23;;
56239;SDS011;42154;51.992;5.896;2024-01-07T01:30:12;45.50;;;26.45;;
56239;SDS011;42154;51.992;5.896;2024-01-07T01:32:39;43.83;;;25.98;;
56239;SDS011;42154;51.992;5.896;2024-01-07T01:35:05;38.58;;;23.92;;
56239;SDS011;42154;51.992;5.896;2024-01-07T01:37:31;45.95;;;26.85;;
56239;SDS011;42154;51.992;5.896;2024-01-07T01:39:59;42.75;;;24.20;;
56239;SDS011;42154;51.992;5.896;2024-01-07T01:42:25;43.45;;;25.42;;
56239;SDS011;42154;51.992;5.896;2024-01-07T01:44:51;43.92;;;26.20;;
56239;SDS011;42154;51.992;5.896;2024-01-07T01:47:18;47.80;;;28.85;;
56239;SDS011;42154;51.992;5.896;2024-01-07T01:49:45;48.80;;;28.08;;
56239;SDS011;42154;51.992;5.896;2024-01-07T01:52:11;46.67;;;25.48;;
56239;SDS011;42154;51.992;5.896;2024-01-07T01:54:38;42.80;;;26.15;;
56239;SDS011;42154;51.992;5.896;2024-01-07T01:57:05;39.33;;;23.58;;
56239;SDS011;42154;51.992;5.896;2024-01-07T01:59:33;39.03;;;24.00;;
56239;SDS011;42154;51.992;5.896;2024-01-07T02:01:59;36.28;;;21.67;;
56239;SDS011;42154;51.992;5.896;2024-01-07T02:04:26;40.25;;;24.52;;
56239;SDS011;42154;51.992;5.896;2024-01-07T02:06:52;37.38;;;23.88;;
56239;SDS011;42154;51.992;5.896;2024-01-07T02:09:18;42.47;;;24.67;;
56239;SDS011;42154;51.992;5.896;2024-01-07T02:11:59;39.35;;;24.48;;
56239;SDS011;42154;51.992;5.896;2024-01-07T02:14:37;40.40;;;23.95;;
56239;SDS011;42154;51.992;5.896;2024-01-07T02:17:03;42.17;;;24.77;;
56239;SDS011;42154;51.992;5.896;2024-01-07T02:19:29;46.40;;;27.42;;
56239;SDS011;42154;51.992;5.896;2024-01-07T02:21:55;43.28;;;25.92;;
56239;SDS011;42154;51.992;5.896;2024-01-07T02:24:21;44.30;;;24.65;;
56239;SDS011;42154;51.992;5.896;2024-01-07T02:26:47;52.35;;;27.65;;
56239;SDS011;42154;51.992;5.896;2024-01-07T02:29:13;50.15;;;27.30;;
56239;SDS011;42154;51.992;5.896;2024-01-07T02:31:39;47.80;;;26.17;;
56239;SDS011;42154;51.992;5.896;2024-01-07T02:34:05;50.45;;;26.73;;
56239;SDS011;42154;51.992;5.896;2024-01-07T02:36:30;46.00;;;26.73;;
56239;SDS011;42154;51.992;5.896;2024-01-07T02:38:56;49.72;;;27.08;;
56239;SDS011;42154;51.992;5.896;2024-01-07T02:41:22;44.83;;;24.83;;
56239;SDS011;42154;51.992;5.896;2024-01-07T02:43:50;41.75;;;24.23;;
56239;SDS011;42154;51.992;5.896;2024-01-07T02:46:16;40.92;;;23.75;;
56239;SDS011;42154;51.992;5.896;2024-01-07T02:48:42;48.55;;;26.20;;
56239;SDS011;42154;51.992;5.896;2024-01-07T02:51:08;41.75;;;23.98;;
56239;SDS011;42154;51.992;5.896;2024-01-07T02:53:34;45.17;;;26.23;;
56239;SDS011;42154;51.992;5.896;2024-01-07T02:56:00;53.42;;;28.58;;
56239;SDS011;42154;51.992;5.896;2024-01-07T02:58:25;50.72;;;28.35;;
56239;SDS011;42154;51.992;5.896;2024-01-07T03:00:51;45.72;;;27.55;;
56239;SDS011;42154;51.992;5.896;2024-01-07T03:03:17;43.55;;;25.33;;
56239;SDS011;42154;51.992;5.896;2024-01-07T03:05:43;48.58;;;27.02;;
56239;SDS011;42154;51.992;5.896;2024-01-07T03:08:09;41.92;;;25.30;;
56239;SDS011;42154;51.992;5.896;2024-01-07T03:10:34;38.30;;;23.88;;
56239;SDS011;42154;51.992;5.896;2024-01-07T03:13:00;40.10;;;23.48;;
56239;SDS011;42154;51.992;5.896;2024-01-07T03:15:26;39.33;;;23.42;;
56239;SDS011;42154;51.992;5.896;2024-01-07T03:17:52;34.72;;;21.27;;
56239;SDS011;42154;51.992;5.896;2024-01-07T03:20:18;35.83;;;21.98;;
56239;SDS011;42154;51.992;5.896;2024-01-07T03:22:43;34.72;;;21.20;;
56239;SDS011;42154;51.992;5.896;2024-01-07T03:25:09;34.72;;;20.42;;
56239;SDS011;42154;51.992;5.896;2024-01-07T03:27:35;29.65;;;19.42;;
56239;SDS011;42154;51.992;5.896;2024-01-07T03:30:01;30.63;;;19.67;;
56239;SDS011;42154;51.992;5.896;2024-01-07T03:32:27;31.80;;;20.10;;
56239;SDS011;42154;51.992;5.896;2024-01-07T03:34:53;29.42;;;18.38;;
56239;SDS011;42154;51.992;5.896;2024-01-07T03:37:19;27.15;;;17.80;;
56239;SDS011;42154;51.992;5.896;2024-01-07T03:39:46;32.13;;;19.30;;
56239;SDS011;42154;51.992;5.896;2024-01-07T03:42:12;28.83;;;19.83;;
56239;SDS011;42154;51.992;5.896;2024-01-07T03:44:38;25.35;;;16.02;;
56239;SDS011;42154;51.992;5.896;2024-01-07T03:47:05;28.10;;;18.05;;
56239;SDS011;42154;51.992;5.896;2024-01-07T03:49:31;27.92;;;18.40;;
56239;SDS011;42154;51.992;5.896;2024-01-07T03:51:57;27.33;;;18.08;;
56239;SDS011;42154;51.992;5.896;2024-01-07T03:54:22;28.88;;;18.58;;
56239;SDS011;42154;51.992;5.896;2024-01-07T03:56:48;26.88;;;17.75;;
56239;SDS011;42154;51.992;5.896;2024-01-07T03:59:14;28.10;;;18.63;;
56239;SDS011;42154;51.992;5.896;2024-01-07T04:01:40;28.35;;;19.08;;
56239;SDS011;42154;51.992;5.896;2024-01-07T04:04:05;25.20;;;17.58;;
56239;SDS011;42154;51.992;5.896;2024-01-07T04:06:31;25.85;;;17.40;;
56239;SDS011;42154;51.992;5.896;2024-01-07T04:08:57;26.88;;;18.48;;
56239;SDS011;42154;51.992;5.896;2024-01-07T04:11:23;33.35;;;21.15;;
56239;SDS011;42154;51.992;5.896;2024-01-07T04:13:48;28.42;;;19.42;;
56239;SDS011;42154;51.992;5.896;2024-01-07T04:16:17;26.38;;;18.50;;
56239;SDS011;42154;51.992;5.896;2024-01-07T04:18:44;26.25;;;18.02;;
56239;SDS011;42154;51.992;5.896;2024-01-07T04:21:10;29.33;;;18.85;;
56239;SDS011;42154;51.992;5.896;2024-01-07T04:23:37;31.80;;;19.67;;
56239;SDS011;42154;51.992;5.896;2024-01-07T04:26:04;30.67;;;20.65;;
56239;SDS011;42154;51.992;5.896;2024-01-07T04:28:30;31.10;;;20.30;;
56239;SDS011;42154;51.992;5.896;2024-01-07T04:30:55;30.67;;;19.98;;
56239;SDS011;42154;51.992;5.896;2024-01-07T04:33:21;31.92;;;21.08;;
56239;SDS011;42154;51.992;5.896;2024-01-07T04:35:47;30.45;;;20.80;;
56239;SDS011;42154;51.992;5.896;2024-01-07T04:38:13;34.78;;;21.10;;
56239;SDS011;42154;51.992;5.896;2024-01-07T04:40:39;31.67;;;22.05;;
56239;SDS011;42154;51.992;5.896;2024-01-07T04:43:05;33.05;;;21.27;;
56239;SDS011;42154;51.992;5.896;2024-01-07T04:45:31;32.75;;;21.95;;
56239;SDS011;42154;51.992;5.896;2024-01-07T04:47:56;31.25;;;21.85;;
56239;SDS011;42154;51.992;5.896;2024-01-07T04:50:22;31.80;;;21.85;;
56239;SDS011;42154;51.992;5.896;2024-01-07T04:52:48;30.90;;;20.52;;
56239;SDS011;42154;51.992;5.896;2024-01-07T04:55:13;30.10;;;19.80;;
56239;SDS011;42154;51.992;5.896;2024-01-07T04:57:39;29.50;;;20.60;;
56239;SDS011;42154;51.992;5.896;2024-01-07T05:00:05;28.27;;;19.77;;
56239;SDS011;42154;51.992;5.896;2024-01-07T05:02:31;28.00;;;20.02;;
56239;SDS011;42154;51.992;5.896;2024-01-07T05:04:57;27.17;;;19.52;;
56239;SDS011;42154;51.992;5.896;2024-01-07T05:07:23;29.00;;;20.00;;
56239;SDS011;42154;51.992;5.896;2024-01-07T05:09:48;24.08;;;18.13;;
56239;SDS011;42154;51.992;5.896;2024-01-07T05:12:14;28.48;;;19.55;;
56239;SDS011;42154;51.992;5.896;2024-01-07T05:14:40;30.30;;;20.35;;
56239;SDS011;42154;51.992;5.896;2024-01-07T05:17:08;25.85;;;18.52;;
56239;SDS011;42154;51.992;5.896;2024-01-07T05:19:34;31.60;;;20.65;;
56239;SDS011;42154;51.992;5.896;2024-01-07T05:22:00;26.75;;;18.58;;
56239;SDS011;42154;51.992;5.896;2024-01-07T05:24:26;28.48;;;19.27;;
56239;SDS011;42154;51.992;5.896;2024-01-07T05:26:52;28.48;;;20.33;;
56239;SDS011;42154;51.992;5.896;2024-01-07T05:29:17;23.30;;;17.60;;
56239;SDS011;42154;51.992;5.896;2024-01-07T05:31:43;27.50;;;19.13;;
56239;SDS011;42154;51.992;5.896;2024-01-07T05:34:09;26.23;;;18.58;;
56239;SDS011;42154;51.992;5.896;2024-01-07T05:36:35;22.38;;;16.73;;
56239;SDS011;42154;51.992;5.896;2024-01-07T05:39:00;25.05;;;17.92;;
56239;SDS011;42154;51.992;5.896;2024-01-07T05:41:26;24.88;;;18.13;;
56239;SDS011;42154;51.992;5.896;2024-01-07T05:43:52;23.23;;;17.38;;
56239;SDS011;42154;51.992;5.896;2024-01-07T05:46:18;23.65;;;18.15;;
56239;SDS011;42154;51.992;5.896;2024-01-07T05:48:44;24.40;;;16.73;;
56239;SDS011;42154;51.992;5.896;2024-01-07T05:51:11;22.65;;;16.67;;
56239;SDS011;42154;51.992;5.896;2024-01-07T05:53:38;27.63;;;18.83;;
56239;SDS011;42154;51.992;5.896;2024-01-07T05:56:04;22.70;;;16.45;;
56239;SDS011;42154;51.992;5.896;2024-01-07T05:58:30;23.40;;;16.98;;
56239;SDS011;42154;51.992;5.896;2024-01-07T06:00:56;25.48;;;17.20;;
56239;SDS011;42154;51.992;5.896;2024-01-07T06:03:22;22.90;;;17.40;;
56239;SDS011;42154;51.992;5.896;2024-01-07T06:05:47;24.92;;;18.58;;
56239;SDS011;42154;51.992;5.896;2024-01-07T06:08:13;23.75;;;17.42;;
56239;SDS011;42154;51.992;5.896;2024-01-07T06:10:39;23.77;;;16.92;;
56239;SDS011;42154;51.992;5.896;2024-01-07T06:13:05;24.52;;;17.30;;
56239;SDS011;42154;51.992;5.896;2024-01-07T06:15:31;23.55;;;17.10;;
56239;SDS011;42154;51.992;5.896;2024-01-07T06:17:57;21.88;;;16.10;;
56239;SDS011;42154;51.992;5.896;2024-01-07T06:20:23;23.73;;;17.45;;
56239;SDS011;42154;51.992;5.896;2024-01-07T06:22:49;23.30;;;16.08;;
56239;SDS011;42154;51.992;5.896;2024-01-07T06:25:15;24.08;;;16.70;;
56239;SDS011;42154;51.992;5.896;2024-01-07T06:27:41;23.52;;;16.83;;
56239;SDS011;42154;51.992;5.896;2024-01-07T06:30:07;24.63;;;17.00;;
56239;SDS011;42154;51.992;5.896;2024-01-07T06:32:33;20.77;;;14.90;;
56239;SDS011;42154;51.992;5.896;2024-01-07T06:35:00;24.65;;;17.20;;
56239;SDS011;42154;51.992;5.896;2024-01-07T06:37:28;21.80;;;16.67;;
56239;SDS011;42154;51.992;5.896;2024-01-07T06:39:58;24.20;;;17.25;;
56239;SDS011;42154;51.992;5.896;2024-01-07T06:42:24;23.25;;;16.25;;
56239;SDS011;42154;51.992;5.896;2024-01-07T06:44:50;23.17;;;16.70;;
56239;SDS011;42154;51.992;5.896;2024-01-07T06:47:15;23.13;;;16.17;;
56239;SDS011;42154;51.992;5.896;2024-01-07T06:49:41;25.50;;;16.63;;
56239;SDS011;42154;51.992;5.896;2024-01-07T06:52:07;23.48;;;16.38;;
56239;SDS011;42154;51.992;5.896;2024-01-07T06:54:33;23.42;;;15.98;;
56239;SDS011;42154;51.992;5.896;2024-01-07T06:56:59;25.77;;;16.50;;
56239;SDS011;42154;51.992;5.896;2024-01-07T06:59:24;24.15;;;17.05;;
56239;SDS011;42154;51.992;5.896;2024-01-07T07:01:50;23.52;;;16.02;;
56239;SDS011;42154;51.992;5.896;2024-01-07T07:04:20;22.50;;;15.77;;
56239;SDS011;42154;51.992;5.896;2024-01-07T07:06:46;22.67;;;15.20;;
56239;SDS011;42154;51.992;5.896;2024-01-07T07:09:12;21.77;;;16.50;;
56239;SDS011;42154;51.992;5.896;2024-01-07T07:11:40;22.83;;;15.75;;
56239;SDS011;42154;51.992;5.896;2024-01-07T07:14:06;20.65;;;15.88;;
56239;SDS011;42154;51.992;5.896;2024-01-07T07:16:32;18.77;;;14.57;;
56239;SDS011;42154;51.992;5.896;2024-01-07T07:18:57;22.17;;;15.93;;
56239;SDS011;42154;51.992;5.896;2024-01-07T07:21:23;21.05;;;15.13;;
56239;SDS011;42154;51.992;5.896;2024-01-07T07:23:49;23.20;;;17.35;;
56239;SDS011;42154;51.992;5.896;2024-01-07T07:26:15;20.52;;;15.07;;
56239;SDS011;42154;51.992;5.896;2024-01-07T07:28:40;20.33;;;14.75;;
56239;SDS011;42154;51.992;5.896;2024-01-07T07:31:06;18.88;;;13.98;;
56239;SDS011;42154;51.992;5.896;2024-01-07T07:33:32;19.35;;;14.82;;
56239;SDS011;42154;51.992;5.896;2024-01-07T07:35:57;18.55;;;14.35;;
56239;SDS011;42154;51.992;5.896;2024-01-07T07:38:23;18.58;;;14.32;;
56239;SDS011;42154;51.992;5.896;2024-01-07T07:40:49;20.50;;;14.20;;
56239;SDS011;42154;51.992;5.896;2024-01-07T07:43:21;22.02;;;15.23;;
56239;SDS011;42154;51.992;5.896;2024-01-07T07:45:47;22.40;;;15.07;;
56239;SDS011;42154;51.992;5.896;2024-01-07T07:48:12;20.38;;;15.07;;
56239;SDS011;42154;51.992;5.896;2024-01-07T07:50:38;19.05;;;15.20;;
56239;SDS011;42154;51.992;5.896;2024-01-07T07:53:05;20.20;;;14.50;;
56239;SDS011;42154;51.992;5.896;2024-01-07T07:55:31;17.85;;;12.85;;
56239;SDS011;42154;51.992;5.896;2024-01-07T07:57:57;15.82;;;13.23;;
56239;SDS011;42154;51.992;5.896;2024-01-07T08:00:23;18.67;;;14.60;;
56239;SDS011;42154;51.992;5.896;2024-01-07T08:02:49;18.10;;;13.85;;
56239;SDS011;42154;51.992;5.896;2024-01-07T08:05:15;17.80;;;14.20;;
56239;SDS011;42154;51.992;5.896;2024-01-07T08:07:41;20.45;;;15.30;;
56239;SDS011;42154;51.992;5.896;2024-01-07T08:10:07;16.15;;;13.30;;
56239;SDS011;42154;51.992;5.896;2024-01-07T08:12:34;17.05;;;13.55;;
56239;SDS011;42154;51.992;5.896;2024-01-07T08:15:00;16.80;;;13.15;;
56239;SDS011;42154;51.992;5.896;2024-01-07T08:17:26;15.90;;;12.52;;
56239;SDS011;42154;51.992;5.896;2024-01-07T08:19:52;17.00;;;12.07;;
56239;SDS011;42154;51.992;5.896;2024-01-07T08:22:18;14.00;;;12.23;;
56239;SDS011;42154;51.992;5.896;2024-01-07T08:24:44;15.43;;;12.40;;
56239;SDS011;42154;51.992;5.896;2024-01-07T08:27:10;15.95;;;12.63;;
56239;SDS011;42154;51.992;5.896;2024-01-07T08:29:36;13.50;;;11.52;;
56239;SDS011;42154;51.992;5.896;2024-01-07T08:32:02;14.40;;;11.70;;
56239;SDS011;42154;51.992;5.896;2024-01-07T08:34:27;14.38;;;11.70;;
56239;SDS011;42154;51.992;5.896;2024-01-07T08:36:53;15.52;;;11.23;;
56239;SDS011;42154;51.992;5.896;2024-01-07T08:39:19;13.63;;;11.35;;
56239;SDS011;42154;51.992;5.896;2024-01-07T08:41:45;14.25;;;11.30;;
56239;SDS011;42154;51.992;5.896;2024-01-07T08:44:11;13.50;;;11.05;;
56239;SDS011;42154;51.992;5.896;2024-01-07T08:46:37;14.25;;;11.43;;
56239;SDS011;42154;51.992;5.896;2024-01-07T08:49:02;16.65;;;12.50;;
56239;SDS011;42154;51.992;5.896;2024-01-07T08:51:28;13.63;;;11.70;;
56239;SDS011;42154;51.992;5.896;2024-01-07T08:53:54;14.02;;;11.15;;
56239;SDS011;42154;51.992;5.896;2024-01-07T08:56:22;15.57;;;12.60;;
56239;SDS011;42154;51.992;5.896;2024-01-07T08:58:48;14.52;;;11.52;;
56239;SDS011;42154;51.992;5.896;2024-01-07T09:01:14;17.38;;;12.85;;
56239;SDS011;42154;51.992;5.896;2024-01-07T09:03:40;14.65;;;12.00;;
56239;SDS011;42154;51.992;5.896;2024-01-07T09:06:06;13.93;;;11.75;;
56239;SDS011;42154;51.992;5.896;2024-01-07T09:08:33;15.60;;;12.55;;
56239;SDS011;42154;51.992;5.896;2024-01-07T09:10:59;14.48;;;11.75;;
56239;SDS011;42154;51.992;5.896;2024-01-07T09:13:25;15.52;;;11.88;;
56239;SDS011;42154;51.992;5.896;2024-01-07T09:15:51;16.83;;;12.10;;
56239;SDS011;42154;51.992;5.896;2024-01-07T09:18:17;15.43;;;11.65;;
56239;SDS011;42154;51.992;5.896;2024-01-07T09:20:43;13.88;;;11.20;;
56239;SDS011;42154;51.992;5.896;2024-01-07T09:23:09;15.35;;;11.02;;
56239;SDS011;42154;51.992;5.896;2024-01-07T09:25:35;15.60;;;11.80;;
56239;SDS011;42154;51.992;5.896;2024-01-07T09:28:00;15.35;;;11.13;;
56239;SDS011;42154;51.992;5.896;2024-01-07T09:30:26;16.13;;;10.75;;
56239;SDS011;42154;51.992;5.896;2024-01-07T09:32:52;15.65;;;10.80;;
56239;SDS011;42154;51.992;5.896;2024-01-07T09:35:18;15.15;;;10.48;;
56239;SDS011;42154;51.992;5.896;2024-01-07T09:37:43;17.17;;;11.50;;
56239;SDS011;42154;51.992;5.896;2024-01-07T09:40:09;16.30;;;11.57;;
56239;SDS011;42154;51.992;5.896;2024-01-07T09:42:36;14.43;;;9.90;;
56239;SDS011;42154;51.992;5.896;2024-01-07T09:45:02;13.95;;;10.70;;
56239;SDS011;42154;51.992;5.896;2024-01-07T09:47:29;14.90;;;10.35;;
56239;SDS011;42154;51.992;5.896;2024-01-07T09:49:55;15.63;;;10.88;;
56239;SDS011;42154;51.992;5.896;2024-01-07T09:52:21;13.38;;;9.80;;
56239;SDS011;42154;51.992;5.896;2024-01-07T09:54:49;12.88;;;9.10;;
56239;SDS011;42154;51.992;5.896;2024-01-07T09:57:17;12.38;;;8.77;;
56239;SDS011;42154;51.992;5.896;2024-01-07T09:59:43;13.48;;;9.55;;
56239;SDS011;42154;51.992;5.896;2024-01-07T10:02:08;12.15;;;9.10;;
56239;SDS011;42154;51.992;5.896;2024-01-07T10:04:35;13.13;;;8.55;;
56239;SDS011;42154;51.992;5.896;2024-01-07T10:07:00;12.38;;;8.73;;
56239;SDS011;42154;51.992;5.896;2024-01-07T10:09:30;10.93;;;8.27;;
56239;SDS011;42154;51.992;5.896;2024-01-07T10:11:58;10.82;;;7.88;;
56239;SDS011;42154;51.992;5.896;2024-01-07T10:14:24;10.63;;;8.18;;
56239;SDS011;42154;51.992;5.896;2024-01-07T10:16:54;9.80;;;7.28;;
56239;SDS011;42154;51.992;5.896;2024-01-07T10:19:23;11.02;;;7.78;;
56239;SDS011;42154;51.992;5.896;2024-01-07T10:21:58;9.02;;;6.70;;
56239;SDS011;42154;51.992;5.896;2024-01-07T10:24:25;9.35;;;6.97;;
56239;SDS011;42154;51.992;5.896;2024-01-07T10:26:51;10.02;;;7.07;;
56239;SDS011;42154;51.992;5.896;2024-01-07T10:29:17;9.02;;;6.63;;
56239;SDS011;42154;51.992;5.896;2024-01-07T10:31:43;8.88;;;6.68;;
56239;SDS011;42154;51.992;5.896;2024-01-07T10:34:09;8.25;;;6.15;;
56239;SDS011;42154;51.992;5.896;2024-01-07T10:36:35;9.75;;;6.28;;
56239;SDS011;42154;51.992;5.896;2024-01-07T10:39:02;8.65;;;6.30;;
56239;SDS011;42154;51.992;5.896;2024-01-07T10:41:28;8.18;;;6.30;;
56239;SDS011;42154;51.992;5.896;2024-01-07T10:43:55;8.32;;;6.05;;
56239;SDS011;42154;51.992;5.896;2024-01-07T10:46:21;8.95;;;6.20;;
56239;SDS011;42154;51.992;5.896;2024-01-07T10:48:59;9.93;;;6.15;;
56239;SDS011;42154;51.992;5.896;2024-01-07T10:51:29;6.45;;;5.55;;
56239;SDS011;42154;51.992;5.896;2024-01-07T10:53:59;10.07;;;5.77;;
56239;SDS011;42154;51.992;5.896;2024-01-07T10:56:30;8.27;;;5.63;;
56239;SDS011;42154;51.992;5.896;2024-01-07T10:59:03;7.47;;;5.47;;
56239;SDS011;42154;51.992;5.896;2024-01-07T11:01:29;7.05;;;5.63;;
56239;SDS011;42154;51.992;5.896;2024-01-07T11:04:06;7.13;;;5.68;;
56239;SDS011;42154;51.992;5.896;2024-01-07T11:06:45;7.43;;;5.95;;
56239;SDS011;42154;51.992;5.896;2024-01-07T11:09:20;8.35;;;5.28;;
56239;SDS011;42154;51.992;5.896;2024-01-07T11:11:58;8.38;;;5.43;;
56239;SDS011;42154;51.992;5.896;2024-01-07T11:14:34;6.55;;;5.80;;
56239;SDS011;42154;51.992;5.896;2024-01-07T11:17:08;8.25;;;5.60;;
56239;SDS011;42154;51.992;5.896;2024-01-07T11:19:37;7.35;;;5.20;;
56239;SDS011;42154;51.992;5.896;2024-01-07T11:22:22;7.25;;;5.03;;
56239;SDS011;42154;51.992;5.896;2024-01-07T11:24:54;5.78;;;4.65;;
56239;SDS011;42154;51.992;5.896;2024-01-07T11:27:21;6.32;;;4.20;;
56239;SDS011;42154;51.992;5.896;2024-01-07T11:29:54;7.20;;;4.63;;
56239;SDS011;42154;51.992;5.896;2024-01-07T11:32:28;6.63;;;4.47;;
56239;SDS011;42154;51.992;5.896;2024-01-07T11:34:54;5.43;;;3.95;;
56239;SDS011;42154;51.992;5.896;2024-01-07T11:37:22;6.10;;;3.95;;
56239;SDS011;42154;51.992;5.896;2024-01-07T11:39:48;5.65;;;3.65;;
56239;SDS011;42154;51.992;5.896;2024-01-07T11:42:16;4.80;;;3.40;;
56239;SDS011;42154;51.992;5.896;2024-01-07T11:44:50;5.30;;;3.78;;
56239;SDS011;42154;51.992;5.896;2024-01-07T11:47:20;5.28;;;3.35;;
56239;SDS011;42154;51.992;5.896;2024-01-07T11:49:47;5.70;;;4.03;;
56239;SDS011;42154;51.992;5.896;2024-01-07T11:52:14;4.00;;;3.20;;
56239;SDS011;42154;51.992;5.896;2024-01-07T11:54:40;4.32;;;3.20;;
56239;SDS011;42154;51.992;5.896;2024-01-07T11:57:06;3.65;;;2.80;;
56239;SDS011;42154;51.992;5.896;2024-01-07T11:59:33;4.47;;;2.80;;
56239;SDS011;42154;51.992;5.896;2024-01-07T12:02:02;4.95;;;3.17;;
56239;SDS011;42154;51.992;5.896;2024-01-07T12:04:31;4.57;;;3.00;;
56239;SDS011;42154;51.992;5.896;2024-01-07T12:06:58;2.88;;;2.35;;
56239;SDS011;42154;51.992;5.896;2024-01-07T12:09:25;4.13;;;2.80;;
56239;SDS011;42154;51.992;5.896;2024-01-07T12:11:51;5.00;;;2.97;;
56239;SDS011;42154;51.992;5.896;2024-01-07T12:14:17;4.60;;;2.60;;
56239;SDS011;42154;51.992;5.896;2024-01-07T12:16:44;4.35;;;2.83;;
56239;SDS011;42154;51.992;5.896;2024-01-07T12:19:10;4.15;;;2.72;;
56239;SDS011;42154;51.992;5.896;2024-01-07T12:21:37;5.07;;;2.35;;
56239;SDS011;42154;51.992;5.896;2024-01-07T12:24:03;4.57;;;2.45;;
56239;SDS011;42154;51.992;5.896;2024-01-07T12:26:29;2.92;;;2.17;;
56239;SDS011;42154;51.992;5.896;2024-01-07T12:28:58;2.35;;;1.77;;
56239;SDS011;42154;51.992;5.896;2024-01-07T12:31:29;3.35;;;1.90;;
56239;SDS011;42154;51.992;5.896;2024-01-07T12:33:56;3.65;;;2.25;;
56239;SDS011;42154;51.992;5.896;2024-01-07T12:36:23;4.25;;;2.20;;
56239;SDS011;42154;51.992;5.896;2024-01-07T12:38:49;2.70;;;1.85;;
56239;SDS011;42154;51.992;5.896;2024-01-07T12:41:17;3.15;;;1.90;;
56239;SDS011;42154;51.992;5.896;2024-01-07T12:43:43;3.83;;;1.77;;
56239;SDS011;42154;51.992;5.896;2024-01-07T12:46:08;3.42;;;1.92;;
56239;SDS011;42154;51.992;5.896;2024-01-07T12:48:34;3.72;;;2.30;;
56239;SDS011;42154;51.992;5.896;2024-01-07T12:51:00;4.82;;;2.05;;
56239;SDS011;42154;51.992;5.896;2024-01-07T12:53:26;2.22;;;1.73;;
56239;SDS011;42154;51.992;5.896;2024-01-07T12:55:52;4.82;;;2.38;;
56239;SDS011;42154;51.992;5.896;2024-01-07T12:58:19;2.75;;;1.80;;
56239;SDS011;42154;51.992;5.896;2024-01-07T13:00:46;2.45;;;1.40;;
56239;SDS011;42154;51.992;5.896;2024-01-07T13:03:12;2.92;;;1.92;;
56239;SDS011;42154;51.992;5.896;2024-01-07T13:05:47;3.35;;;2.28;;
56239;SDS011;42154;51.992;5.896;2024-01-07T13:08:16;4.07;;;1.83;;
56239;SDS011;42154;51.992;5.896;2024-01-07T13:10:44;4.22;;;1.95;;
56239;SDS011;42154;51.992;5.896;2024-01-07T13:13:11;2.95;;;2.10;;
56239;SDS011;42154;51.992;5.896;2024-01-07T13:15:38;2.60;;;1.90;;
56239;SDS011;42154;51.992;5.896;2024-01-07T13:18:06;3.13;;;1.73;;
56239;SDS011;42154;51.992;5.896;2024-01-07T13:20:32;2.83;;;1.92;;
56239;SDS011;42154;51.992;5.896;2024-01-07T13:22:59;2.38;;;1.73;;
56239;SDS011;42154;51.992;5.896;2024-01-07T13:25:25;2.72;;;1.50;;
56239;SDS011;42154;51.992;5.896;2024-01-07T13:27:51;2.50;;;1.70;;
56239;SDS011;42154;51.992;5.896;2024-01-07T13:30:18;2.50;;;1.50;;
56239;SDS011;42154;51.992;5.896;2024-01-07T13:32:44;2.25;;;1.80;;
56239;SDS011;42154;51.992;5.896;2024-01-07T13:35:09;3.42;;;2.20;;
56239;SDS011;42154;51.992;5.896;2024-01-07T13:37:35;1.73;;;1.63;;
56239;SDS011;42154;51.992;5.896;2024-01-07T13:40:02;2.17;;;1.60;;
56239;SDS011;42154;51.992;5.896;2024-01-07T13:42:29;5.18;;;1.90;;
56239;SDS011;42154;51.992;5.896;2024-01-07T13:44:55;3.58;;;1.80;;
56239;SDS011;42154;51.992;5.896;2024-01-07T13:47:20;2.55;;;1.45;;
56239;SDS011;42154;51.992;5.896;2024-01-07T13:49:46;1.60;;;1.40;;
56239;SDS011;42154;51.992;5.896;2024-01-07T13:52:12;2.85;;;1.52;;
56239;SDS011;42154;51.992;5.896;2024-01-07T13:54:38;3.53;;;1.67;;
56239;SDS011;42154;51.992;5.896;2024-01-07T13:57:04;2.47;;;1.65;;
56239;SDS011;42154;51.992;5.896;2024-01-07T13:59:30;2.20;;;1.52;;
56239;SDS011;42154;51.992;5.896;2024-01-07T14:01:56;1.60;;;1.27;;
56239;SDS011;42154;51.992;5.896;2024-01-07T14:04:24;1.65;;;1.10;;
56239;SDS011;42154;51.992;5.896;2024-01-07T14:06:57;1.80;;;1.30;;
56239;SDS011;42154;51.992;5.896;2024-01-07T14:09:23;1.50;;;1.05;;
56239;SDS011;42154;51.992;5.896;2024-01-07T14:11:49;2.00;;;1.30;;
56239;SDS011;42154;51.992;5.896;2024-01-07T14:14:15;2.33;;;1.20;;
56239;SDS011;42154;51.992;5.896;2024-01-07T14:16:41;1.40;;;1.10;;
56239;SDS011;42154;51.992;5.896;2024-01-07T14:19:07;3.05;;;1.55;;
56239;SDS011;42154;51.992;5.896;2024-01-07T14:21:33;3.88;;;1.33;;
56239;SDS011;42154;51.992;5.896;2024-01-07T14:23:59;4.32;;;1.20;;